createdAt,value
2022-09-21T00:05:12.885Z,12.82
2022-09-21T00:08:25.744Z,13.11
2022-09-21T00:11:51.738Z,12.73
2022-09-21T00:15:03.728Z,12.83
2022-09-21T00:18:10.315Z,12.41
2022-09-21T00:27:33.801Z,12.72
2022-09-21T00:30:47.457Z,12.46
2022-09-21T00:33:57.299Z,12.17
2022-09-21T00:37:07.679Z,12.70
2022-09-21T00:44:01.864Z,12.61
2022-09-21T00:46:40.000Z,12.76
2022-09-21T00:50:30.982Z,12.65
2022-09-21T00:53:18.853Z,12.67
2022-09-21T00:56:29.753Z,12.81
2022-09-21T00:59:31.024Z,12.58
2022-09-21T01:02:16.494Z,12.71
2022-09-21T01:05:09.028Z,12.45
2022-09-21T01:08:08.530Z,12.00
2022-09-21T01:11:18.510Z,12.45
2022-09-21T01:14:03.168Z,12.42
2022-09-21T01:17:07.358Z,12.53
2022-09-21T01:20:39.006Z,12.50
2022-09-21T01:23:49.187Z,12.31
2022-09-21T01:26:51.393Z,11.66
2022-09-21T01:33:54.621Z,11.86
2022-09-21T01:36:45.870Z,11.48
2022-09-21T01:39:32.473Z,11.70
2022-09-21T01:42:12.161Z,11.92
2022-09-21T01:44:48.872Z,11.99
2022-09-21T01:47:28.633Z,12.02
2022-09-21T01:50:15.952Z,12.10
2022-09-21T01:52:59.898Z,12.14
2022-09-21T01:55:57.960Z,12.14
2022-09-21T01:58:45.419Z,11.93
2022-09-21T02:01:23.364Z,11.96
2022-09-21T02:04:08.124Z,11.73
2022-09-21T02:06:52.409Z,11.94
2022-09-21T02:09:26.680Z,11.79
2022-09-21T02:12:04.225Z,11.61
2022-09-21T02:14:56.289Z,11.90
2022-09-21T02:18:17.742Z,11.76
2022-09-21T02:21:03.465Z,11.82
2022-09-21T02:23:44.325Z,11.91
2022-09-21T02:26:24.783Z,12.11
2022-09-21T02:29:43.900Z,12.09
2022-09-21T02:33:13.861Z,12.01
2022-09-21T02:36:27.919Z,12.12
2022-09-21T02:39:07.839Z,12.13
2022-09-21T02:42:03.766Z,12.31
2022-09-21T02:45:52.889Z,12.12
2022-09-21T02:49:34.879Z,12.64
2022-09-21T02:52:03.066Z,11.95
2022-09-21T02:55:44.724Z,12.09
2022-09-21T02:58:25.701Z,11.89
2022-09-21T03:04:15.605Z,12.15
2022-09-21T03:07:10.526Z,11.88
2022-09-21T03:10:07.455Z,11.50
2022-09-21T03:13:13.939Z,12.02
2022-09-21T03:16:08.578Z,12.10
2022-09-21T03:19:13.889Z,12.03
2022-09-21T03:22:04.689Z,12.04
2022-09-21T03:24:48.369Z,11.61
2022-09-21T03:27:36.551Z,11.90
2022-09-21T03:30:57.755Z,11.78
2022-09-21T03:33:12.574Z,11.78
2022-09-21T03:36:03.481Z,11.64
2022-09-21T03:38:37.654Z,11.92
2022-09-21T03:41:14.551Z,12.00
2022-09-21T03:44:06.185Z,12.24
2022-09-21T03:47:01.102Z,12.12
2022-09-21T03:50:00.840Z,12.31
2022-09-21T03:52:34.673Z,12.19
2022-09-21T03:55:53.146Z,12.36
2022-09-21T03:58:40.241Z,12.25
2022-09-21T04:02:20.252Z,12.11
2022-09-21T04:04:56.270Z,12.26
2022-09-21T04:08:00.116Z,12.27
2022-09-21T04:10:57.968Z,12.13
2022-09-21T04:13:51.391Z,11.99
2022-09-21T04:17:02.695Z,11.75
2022-09-21T04:20:08.221Z,11.50
2022-09-21T04:23:07.227Z,11.88
2022-09-21T04:26:02.221Z,11.76
2022-09-21T04:28:48.133Z,11.71
2022-09-21T04:31:43.422Z,11.33
2022-09-21T04:34:46.591Z,11.94
2022-09-21T04:37:51.438Z,11.84
2022-09-21T04:40:43.902Z,11.82
2022-09-21T04:43:29.788Z,11.68
2022-09-21T04:46:19.052Z,12.10
2022-09-21T04:49:16.236Z,11.98
2022-09-21T04:52:07.853Z,11.95
2022-09-21T04:55:29.082Z,11.99
2022-09-21T04:59:48.453Z,11.90
2022-09-21T05:10:04.864Z,11.84
2022-09-21T05:59:03.836Z,12.54
2022-09-21T06:02:04.451Z,12.63
2022-09-21T06:04:40.287Z,12.24
2022-09-21T06:07:33.767Z,12.32
2022-09-21T06:13:45.193Z,12.40
2022-09-21T06:20:12.534Z,12.60
2022-09-21T06:23:06.428Z,12.53
2022-09-21T06:26:17.930Z,12.73
2022-09-21T06:29:05.290Z,12.97
2022-09-21T06:31:43.523Z,13.25
2022-09-21T06:34:24.189Z,13.42
2022-09-21T06:37:07.470Z,13.60
2022-09-21T06:43:48.578Z,14.04
2022-09-21T06:46:41.266Z,14.01
2022-09-21T06:49:46.719Z,14.03
2022-09-21T07:00:34.310Z,14.43
2022-09-21T07:02:38.211Z,14.75
2022-09-21T07:05:18.746Z,14.63
2022-09-21T07:08:06.819Z,14.87
2022-09-21T07:11:09.540Z,14.86
2022-09-21T07:13:54.936Z,15.00
2022-09-21T07:16:27.655Z,15.07
2022-09-21T07:19:20.231Z,15.10
2022-09-21T07:22:01.676Z,14.94
2022-09-21T07:24:35.190Z,15.07
2022-09-21T07:27:29.007Z,15.01
2022-09-21T07:30:54.614Z,15.39
2022-09-21T07:35:06.663Z,15.42
2022-09-21T07:37:41.553Z,15.62
2022-09-21T07:40:32.003Z,14.73
2022-09-21T07:43:52.442Z,15.43
2022-09-21T07:46:29.900Z,15.03
2022-09-21T07:49:36.681Z,15.48
2022-09-21T07:52:10.464Z,15.90
2022-09-21T07:55:03.782Z,15.84
2022-09-21T07:58:03.499Z,15.74
2022-09-21T08:00:35.818Z,15.52
2022-09-21T08:03:05.376Z,15.68
2022-09-21T08:05:43.823Z,15.29
2022-09-21T08:08:26.645Z,15.78
2022-09-21T08:11:05.581Z,15.90
2022-09-21T08:21:06.039Z,16.36
2022-09-21T08:28:18.668Z,16.93
2022-09-21T08:32:05.543Z,16.87
2022-09-21T08:35:53.133Z,17.20
2022-09-21T08:43:16.874Z,17.59
2022-09-21T08:47:13.558Z,17.07
2022-09-21T08:50:41.376Z,17.10
2022-09-21T09:14:19.584Z,18.67
2022-09-21T09:21:38.965Z,18.67
2022-09-21T09:39:38.454Z,18.94
2022-09-21T10:20:23.298Z,20.75
2022-09-21T10:42:08.973Z,20.94
2022-09-21T12:49:02.014Z,23.01
2022-09-21T12:51:59.860Z,22.52
2022-09-21T12:55:16.113Z,21.63
2022-09-21T12:58:16.792Z,21.71
2022-09-21T13:01:26.502Z,21.61
2022-09-21T13:04:25.729Z,21.36
2022-09-21T13:07:23.653Z,21.41
2022-09-21T13:10:15.456Z,21.26
2022-09-21T13:52:54.096Z,22.88
2022-09-21T13:59:46.467Z,23.65
2022-09-21T14:03:11.351Z,23.99
2022-09-21T15:47:29.932Z,22.55
2022-09-21T15:50:45.245Z,22.31
2022-09-21T15:53:33.422Z,22.09
2022-09-21T23:55:15.398Z,12.96
2022-09-21T23:58:16.006Z,12.84
